Time;durP1;ratioP1;P1;durP2;ratioP2;P2;SDS_P1;SDS_P2;PMS_P1;PMS_P2;Temp;Humidity;BMP_temperature;BMP_pressure;BME280_temperature;BME280_humidity;BME280_pressure;Samples;Min_cycle;Max_cycle;Signal;HPM_P1;HPM_P2
2022/05/20 00:00:31;;;;;;;0.60;0.60;;;20.00;71.70;19.40;98817.00;;;;5016568;28;20193;-78
2022/05/20 00:02:58;;;;;;;2.07;1.07;;;20.00;72.50;19.50;98824.00;;;;5016643;28;20745;-78
2022/05/20 00:05:27;;;;;;;0.60;0.60;;;20.00;72.30;19.40;98821.00;;;;5016454;28;20308;-78
2022/05/20 00:07:54;;;;;;;0.37;0.37;;;;;19.40;98812.00;;;;5016487;28;20205;-77
2022/05/20 00:10:22;;;;;;;0.90;0.90;;;19.90;72.60;19.50;98816.00;;;;5016346;28;20198;-77
2022/05/20 00:12:49;;;;;;;0.53;0.53;;;19.90;73.40;19.30;98816.00;;;;5016223;28;20283;-79
2022/05/20 00:15:22;;;;;;;0.50;0.50;;;19.80;73.10;19.30;98817.00;;;;5016355;28;20264;-78
2022/05/20 00:17:48;;;;;;;0.80;0.80;;;19.80;73.50;19.30;98809.00;;;;5016281;28;20237;-78
2022/05/20 00:20:19;;;;;;;0.67;0.67;;;19.80;73.70;19.30;98810.00;;;;5016409;28;20228;-78
2022/05/20 00:22:46;;;;;;;0.53;0.53;;;19.70;74.30;19.30;98809.00;;;;5016259;28;20574;-79
2022/05/20 00:28:00;;;;;;;6.43;0.90;;;19.70;75.40;19.10;98803.00;;;;5016156;28;20205;-77
2022/05/20 00:30:30;;;;;;;2.53;1.63;;;19.60;75.50;19.10;98804.00;;;;5016173;28;20205;-78
2022/05/20 00:32:57;;;;;;;1.50;1.13;;;19.60;76.10;19.00;98804.00;;;;5015937;28;20241;-79
2022/05/20 00:35:26;;;;;;;0.80;0.80;;;19.50;76.10;18.90;98807.00;;;;5016038;28;20221;-79
2022/05/20 00:37:53;;;;;;;1.40;0.87;;;19.40;76.90;18.90;98795.00;;;;5016000;28;20186;-78
2022/05/20 00:40:24;;;;;;;0.57;0.57;;;19.40;77.30;18.90;98813.00;;;;5016188;28;20252;-78
2022/05/20 00:42:51;;;;;;;1.13;1.00;;;19.40;77.80;18.90;98800.00;;;;5016387;28;20305;-78
2022/05/20 00:45:18;;;;;;;0.93;0.80;;;19.40;78.30;18.90;98792.00;;;;5022914;28;20221;-79
2022/05/20 00:47:45;;;;;;;0.63;0.63;;;19.40;78.90;19.00;98798.00;;;;5007440;28;20213;-78
2022/05/20 00:50:17;;;;;;;0.93;0.93;;;19.40;79.50;18.90;98781.00;;;;5022370;28;20693;-78
2022/05/20 00:52:51;;;;;;;1.00;1.00;;;19.40;79.00;18.80;98788.00;;;;5019119;28;20307;-78
2022/05/20 00:55:23;;;;;;;0.60;0.60;;;19.30;79.30;18.70;98774.00;;;;5016111;28;20197;-78
2022/05/20 00:57:56;;;;;;;0.77;0.77;;;19.30;79.80;18.60;98778.00;;;;5015937;28;20295;-79
2022/05/20 01:00:27;;;;;;;0.40;0.40;;;19.20;81.40;18.60;98781.00;;;;5015785;28;20288;-78
2022/05/20 01:02:59;;;;;;;0.80;0.80;;;19.20;81.40;18.60;98784.00;;;;4998363;28;20236;-78
2022/05/20 01:05:32;;;;;;;0.90;0.90;;;19.20;82.40;18.60;98778.00;;;;5015589;28;20642;-78
2022/05/20 01:08:01;;;;;;;0.60;0.60;;;19.10;81.90;18.60;98784.00;;;;5015627;28;20695;-78
2022/05/20 01:10:27;;;;;;;0.80;0.80;;;19.10;82.30;18.60;98781.00;;;;5015518;28;20212;-78
2022/05/20 01:12:56;;;;;;;1.13;1.13;;;19.10;82.30;18.60;98775.00;;;;5015501;28;20555;-78
2022/05/20 01:15:22;;;;;;;0.40;0.40;;;19.10;82.90;18.60;98771.00;;;;5015711;28;20263;-78
2022/05/20 01:17:53;;;;;;;1.33;1.23;;;19.10;83.10;18.70;98787.00;;;;5015333;28;20220;-78
2022/05/20 01:20:25;;;;;;;0.70;0.70;;;19.10;82.60;18.60;98781.00;;;;4998196;28;20424;-78
2022/05/20 01:23:05;;;;;;;0.77;0.77;;;19.10;82.60;18.70;98776.00;;;;5015366;28;20626;-77
2022/05/20 01:25:31;;;;;;;0.73;0.73;;;19.10;81.40;18.60;98770.00;;;;5015224;28;20243;-78
2022/05/20 01:27:59;;;;;;;0.70;0.70;;;19.10;81.20;18.50;98776.00;;;;4998072;28;20234;-78
2022/05/20 01:30:28;;;;;;;1.03;1.03;;;19.00;81.40;18.60;98767.00;;;;5015191;28;20193;-78
2022/05/20 01:32:55;;;;;;;0.63;0.63;;;19.00;81.80;18.50;98775.00;;;;5015190;28;20221;-78
2022/05/20 01:35:34;;;;;;;0.40;0.40;;;19.00;81.50;18.40;98766.00;;;;5015180;28;20200;-76
2022/05/20 01:38:02;;;;;;;1.00;1.00;;;18.90;81.90;18.40;98772.00;;;;5015043;28;20246;-77
2022/05/20 01:40:46;;;;;;;0.90;0.90;;;18.90;82.50;18.20;98764.00;;;;4997997;28;20295;-78
2022/05/20 01:43:39;;;;;;;1.00;1.00;;;18.80;82.40;18.20;98762.00;;;;5014931;28;20197;-78
2022/05/20 01:46:21;;;;;;;0.97;0.97;;;18.80;82.70;18.10;98760.00;;;;4997810;28;20387;-78
2022/05/20 01:49:04;;;;;;;0.70;0.70;;;18.70;83.30;18.10;98759.00;;;;5015376;28;20209;-78
2022/05/20 01:51:39;;;;;;;0.53;0.53;;;18.70;83.40;18.10;98756.00;;;;5014845;28;20373;-78
2022/05/20 01:54:18;;;;;;;3.20;1.17;;;18.60;84.20;18.20;98765.00;;;;5015000;28;20224;-78
2022/05/20 01:56:51;;;;;;;0.90;0.90;;;18.70;83.20;18.10;98755.00;;;;4997479;28;20300;-78
2022/05/20 01:59:24;;;;;;;0.87;0.87;;;18.60;82.60;18.10;98762.00;;;;5013844;28;20545;-79
2022/05/20 02:01:59;;;;;;;1.03;1.03;;;18.60;82.30;18.00;98766.00;;;;5015018;28;20201;-78
2022/05/20 02:04:38;;;;;;;1.63;1.53;;;18.60;83.00;18.00;98760.00;;;;5014704;28;20279;-79
2022/05/20 02:07:11;;;;;;;2.53;1.60;;;18.50;82.30;18.10;98765.00;;;;5014677;28;20205;-79
2022/05/20 02:09:46;;;;;;;2.37;1.23;;;18.50;82.50;18.00;98762.00;;;;5014761;28;20292;-78
2022/05/20 02:12:19;;;;;;;0.93;0.93;;;18.50;83.40;17.90;98763.00;;;;5014579;28;20221;-78
2022/05/20 02:14:57;;;;;;;0.60;0.60;;;18.50;83.40;18.00;98753.00;;;;5014584;28;20221;-77
2022/05/20 02:17:33;;;;;;;0.90;0.90;;;18.40;83.90;17.90;98757.00;;;;5014533;28;20225;-77
2022/05/20 02:20:07;;;;;;;1.13;1.03;;;18.50;83.90;17.90;98760.00;;;;5014455;28;20276;-79
2022/05/20 02:22:41;;;;;;;0.93;0.93;;;18.40;84.40;18.00;98763.00;;;;5014203;28;20279;-78
2022/05/20 02:25:16;;;;;;;0.60;0.60;;;18.50;85.10;18.00;98763.00;;;;5014718;28;20248;-78
2022/05/20 02:27:49;;;;;;;1.00;1.00;;;18.50;84.70;17.90;98755.00;;;;4997539;28;20612;-77
2022/05/20 02:30:21;;;;;;;1.03;1.03;;;18.40;84.10;17.80;98751.00;;;;5015440;28;20680;-77
2022/05/20 02:32:59;;;;;;;0.60;0.60;;;18.30;84.60;17.80;98757.00;;;;5014678;28;20229;-78
2022/05/20 02:35:26;;;;;;;0.63;0.63;;;18.30;85.30;18.00;98758.00;;;;4997600;28;20213;-77
2022/05/20 02:37:54;;;;;;;0.80;0.80;;;18.30;85.70;17.90;98753.00;;;;5014295;28;20220;-78
2022/05/20 02:40:22;;;;;;;1.47;1.37;;;18.30;84.90;17.80;98752.00;;;;4997197;28;20212;-77
2022/05/20 02:42:48;;;;;;;1.27;1.17;;;18.30;85.20;17.90;98757.00;;;;5014176;28;20193;-78
2022/05/20 02:45:18;;;;;;;1.00;1.00;;;18.40;85.30;17.90;98757.00;;;;5014051;28;20244;-78
2022/05/20 02:47:44;;;;;;;1.00;1.00;;;18.30;85.30;17.80;98749.00;;;;5014075;28;20205;-77
2022/05/20 02:50:13;;;;;;;0.90;0.90;;;18.30;85.60;17.70;98745.00;;;;5014086;28;20267;-78
2022/05/20 02:52:40;;;;;;;0.60;0.60;;;18.30;86.50;17.80;98750.00;;;;5013833;28;20271;-78
2022/05/20 02:55:11;;;;;;;0.77;0.77;;;18.30;87.10;17.90;98746.00;;;;5013997;28;20202;-78
2022/05/20 02:57:42;;;;;;;0.97;0.97;;;18.30;86.10;17.70;98749.00;;;;5013924;28;20199;-78
2022/05/20 03:05:43;;;;;;;0.50;0.50;;;18.20;86.10;17.60;98748.00;;;;5013768;28;20231;-78
2022/05/20 03:08:11;;;;;;;2.73;1.33;;;18.10;87.00;17.60;98745.00;;;;5013685;28;20807;-77
2022/05/20 03:10:37;;;;;;;0.70;0.70;;;18.10;86.70;17.70;98751.00;;;;5013662;28;20245;-78
2022/05/20 03:13:07;;;;;;;0.60;0.60;;;18.20;87.70;17.70;98747.00;;;;5013634;28;20789;-78
2022/05/20 03:15:36;;;;;;;0.97;0.90;;;18.20;86.80;17.80;98758.00;;;;5013571;28;20662;-78
2022/05/20 03:18:03;;;;;;;0.77;0.77;;;18.20;87.10;17.80;98721.00;;;;5013628;28;20232;-78
2022/05/20 03:20:32;;;;;;;0.80;0.80;;;18.30;87.20;17.80;98748.00;;;;5013762;28;20224;-78
2022/05/20 03:22:59;;;;;;;1.47;1.37;;;18.20;87.30;17.60;98753.00;;;;5013706;28;20225;-78
2022/05/20 03:25:28;;;;;;;1.10;1.10;;;18.10;88.20;17.60;98743.00;;;;5013501;28;20543;-78
2022/05/20 03:27:54;;;;;;;0.90;0.90;;;18.20;89.10;17.70;98756.00;;;;5013756;28;20217;-78
2022/05/20 03:30:24;;;;;;;0.83;0.83;;;18.20;89.30;17.80;98754.00;;;;4996433;28;20548;-78
2022/05/20 03:32:51;;;;;;;0.90;0.90;;;18.20;89.40;17.80;98753.00;;;;5014038;28;20229;-78
2022/05/20 03:35:17;;;;;;;0.60;0.60;;;18.20;89.40;17.80;98749.00;;;;5017057;28;20243;-78
2022/05/20 03:37:44;;;;;;;0.97;0.90;;;18.30;89.90;17.90;98753.00;;;;5016956;28;20236;-78
2022/05/20 03:40:13;;;;;;;0.60;0.60;;;18.30;90.00;17.90;98757.00;;;;5016048;28;20282;-78
2022/05/20 03:42:40;;;;;;;1.93;1.83;;;18.40;89.60;17.90;98750.00;;;;4999751;28;20213;-78
2022/05/20 03:45:09;;;;;;;1.27;1.17;;;18.40;89.70;17.90;98748.00;;;;5016733;28;20228;-78
2022/05/20 03:47:37;;;;;;;0.97;0.97;;;18.40;89.80;17.80;98748.00;;;;5016841;28;20198;-78
2022/05/20 03:50:05;;;;;;;0.90;0.90;;;18.30;90.10;17.90;98749.00;;;;5016799;28;20621;-78
2022/05/20 03:52:32;;;;;;;0.70;0.70;;;18.30;90.70;17.90;98752.00;;;;5016510;28;20240;-78
2022/05/20 03:54:59;;;;;;;1.43;1.33;;;18.30;90.90;17.90;98754.00;;;;5016713;28;20634;-76
2022/05/20 03:57:25;;;;;;;0.87;0.87;;;18.40;91.10;17.80;98756.00;;;;5016536;28;20612;-77
2022/05/20 03:59:54;;;;;;;1.10;1.10;;;18.40;92.00;17.90;98758.00;;;;4999758;28;20537;-79
2022/05/20 04:02:23;;;;;;;0.50;0.50;;;18.40;91.80;17.90;98755.00;;;;5015825;28;20193;-77
2022/05/20 04:04:53;;;;;;;0.70;0.70;;;18.30;91.80;17.90;98751.00;;;;5016791;28;20263;-79
2022/05/20 04:07:23;;;;;;;0.97;0.97;;;18.40;92.40;17.90;98751.00;;;;5016427;28;20205;-78
2022/05/20 04:09:53;;;;;;;0.63;0.63;;;18.40;92.90;17.90;98751.00;;;;5016471;28;20645;-78
2022/05/20 04:12:26;;;;;;;5.40;2.60;;;18.40;92.90;17.90;98746.00;;;;5016221;28;20218;-78
2022/05/20 04:14:53;;;;;;;0.67;0.67;;;18.40;93.00;18.00;98745.00;;;;5015573;28;20201;-78
2022/05/20 04:17:20;;;;;;;1.10;1.10;;;18.40;93.10;18.00;98740.00;;;;4999249;28;20228;-78
2022/05/20 04:19:47;;;;;;;0.93;0.93;;;18.40;93.10;18.00;98743.00;;;;4999037;28;20236;-78
2022/05/20 04:22:23;;;;;;;0.87;0.87;;;18.40;93.40;18.00;98743.00;;;;5016289;28;20205;-78
2022/05/20 04:24:50;;;;;;;0.83;0.83;;;18.40;93.70;18.10;98747.00;;;;5016265;28;20228;-78
2022/05/20 04:27:16;;;;;;;1.00;1.00;;;18.50;93.30;18.10;98740.00;;;;5016288;28;20232;-78
2022/05/20 04:29:43;;;;;;;0.80;0.80;;;18.60;93.40;18.10;98742.00;;;;5016199;28;20202;-78
2022/05/20 04:32:10;;;;;;;0.83;0.83;;;18.60;93.20;18.20;98738.00;;;;4998867;28;20698;-77
2022/05/20 04:34:37;;;;;;;1.70;1.40;;;18.60;93.30;18.10;98729.00;;;;5016131;28;20216;-76
2022/05/20 04:37:04;;;;;;;1.13;1.13;;;18.60;93.20;18.20;98736.00;;;;5016001;28;20511;-75
2022/05/20 04:39:34;;;;;;;1.20;1.10;;;18.70;93.10;18.10;98734.00;;;;5016018;28;20217;-77
2022/05/20 04:47:33;;;;;;;3.30;1.90;;;18.70;92.70;18.30;98725.00;;;;5015820;28;20275;-76
2022/05/20 04:50:00;;;;;;;0.50;0.50;;;18.80;92.90;18.40;98730.00;;;;5018984;28;20288;-76
2022/05/20 04:52:27;;;;;;;1.10;1.10;;;18.80;92.70;18.50;98738.00;;;;5017393;28;20217;-77
2022/05/20 04:54:56;;;;;;;1.57;1.47;;;;;18.50;98733.00;;;;5016846;28;20625;-76
2022/05/20 04:57:30;;;;;;;1.20;1.20;;;18.90;91.80;18.50;98724.00;;;;5016255;28;20217;-77
2022/05/20 05:00:06;;;;;;;4.50;1.57;;;19.00;92.20;18.60;98720.00;;;;5015845;28;20200;-77
2022/05/20 05:02:32;;;;;;;0.80;0.80;;;19.00;92.50;18.60;98724.00;;;;5015698;28;20218;-77
2022/05/20 05:05:00;;;;;;;0.70;0.70;;;;;18.70;98726.00;;;;5015506;28;20229;-77
2022/05/20 05:07:26;;;;;;;1.00;1.00;;;19.10;91.90;18.70;98720.00;;;;5015624;28;20284;-77
2022/05/20 05:09:53;;;;;;;0.80;0.80;;;19.20;92.00;18.80;98722.00;;;;5015492;28;20640;-76
2022/05/20 05:12:23;;;;;;;0.83;0.83;;;19.30;92.00;18.80;98734.00;;;;5015201;28;20222;-76
2022/05/20 05:14:52;;;;;;;0.80;0.80;;;19.30;92.60;18.90;98721.00;;;;5015330;28;20227;-77
2022/05/20 05:20:05;;;;;;;1.10;1.10;;;19.40;91.70;19.10;98739.00;;;;5014302;28;20645;-77
2022/05/20 05:22:33;;;;;;;0.77;0.77;;;19.50;91.00;19.20;98744.00;;;;5015293;28;20209;-77
2022/05/20 05:25:00;;;;;;;0.90;0.90;;;19.60;91.40;19.10;98734.00;;;;4998011;28;20665;-78
2022/05/20 05:27:27;;;;;;;1.77;1.63;;;19.60;92.00;19.20;98740.00;;;;5014273;28;20213;-76
2022/05/20 05:29:56;;;;;;;1.17;1.17;;;19.70;92.00;19.30;98740.00;;;;5015357;28;20217;-77
2022/05/20 05:32:25;;;;;;;1.40;1.00;;;19.70;92.20;19.30;98741.00;;;;5015416;28;20275;-76
2022/05/20 05:34:52;;;;;;;4.30;1.70;;;;;19.40;98748.00;;;;5014312;28;20201;-76
2022/05/20 05:37:21;;;;;;;2.27;1.40;;;19.90;90.20;19.50;98738.00;;;;5014994;28;20225;-77
2022/05/20 05:39:47;;;;;;;2.10;1.43;;;19.90;90.30;19.50;98748.00;;;;5015013;28;20204;-77
2022/05/20 05:42:14;;;;;;;0.90;0.90;;;20.00;89.50;19.70;98740.00;;;;5015006;28;20337;-77
2022/05/20 05:44:41;;;;;;;0.83;0.83;;;20.10;88.50;19.80;98737.00;;;;4997623;28;20595;-78
2022/05/20 05:47:08;;;;;;;0.70;0.70;;;;;19.80;98737.00;;;;5015032;28;20301;-78
2022/05/20 05:49:34;;;;;;;1.50;1.10;;;20.20;86.90;19.90;98737.00;;;;5014926;28;20567;-78
2022/05/20 05:52:01;;;;;;;2.20;1.43;;;20.30;87.80;20.00;98727.00;;;;5014758;28;20316;-75
2022/05/20 05:54:27;;;;;;;1.00;1.00;;;20.40;88.00;20.10;98726.00;;;;4997990;28;20598;-77
2022/05/20 05:56:54;;;;;;;1.13;1.10;;;20.50;88.90;20.10;98731.00;;;;5013829;28;20201;-77
2022/05/20 05:59:20;;;;;;;1.00;1.00;;;20.50;88.50;20.10;98731.00;;;;5014962;28;20343;-75
2022/05/20 06:01:48;;;;;;;0.80;0.80;;;;;20.20;98724.00;;;;5014821;28;20217;-76
2022/05/20 06:04:17;;;;;;;1.20;1.20;;;20.60;87.10;20.30;98728.00;;;;5014582;28;20225;-74
2022/05/20 06:06:43;;;;;;;1.13;1.13;;;20.70;88.00;20.30;98734.00;;;;4997492;28;20194;-74
2022/05/20 06:09:09;;;;;;;0.50;0.50;;;20.70;86.80;20.40;98742.00;;;;5014756;28;20612;-74
2022/05/20 06:11:36;;;;;;;1.20;1.03;;;20.90;84.50;20.60;98732.00;;;;5014527;28;20197;-74
2022/05/20 06:14:03;;;;;;;0.80;0.80;;;21.00;82.80;20.70;98729.00;;;;5014732;28;20213;-74
2022/05/20 06:16:30;;;;;;;0.60;0.60;;;;;21.00;98732.00;;;;5014553;28;20258;-74
2022/05/20 06:18:58;;;;;;;0.40;0.40;;;;;21.20;98729.00;;;;5014550;28;20200;-75
2022/05/20 06:21:26;;;;;;;0.90;0.90;;;;;21.40;98726.00;;;;4997165;28;20214;-74
2022/05/20 06:23:53;;;;;;;0.80;0.80;;;21.60;69.70;21.40;98729.00;;;;5013324;28;20233;-73
2022/05/20 06:26:19;;;;;;;1.02;1.02;;;21.70;70.30;21.50;98722.00;;;;5014395;28;20205;-75
2022/05/20 06:28:46;;;;;;;0.50;0.50;;;21.80;68.10;21.70;98728.00;;;;5014329;28;20296;-76
2022/05/20 06:31:15;;;;;;;0.50;0.50;;;;;21.90;98718.00;;;;5014225;28;20201;-75
2022/05/20 06:33:42;;;;;;;0.85;0.85;;;22.10;63.20;21.90;98726.00;;;;5014086;28;20225;-75
2022/05/20 06:41:42;;;;;;;1.48;1.13;;;22.60;60.70;22.30;98725.00;;;;5007532;28;20210;-76
2022/05/20 06:44:09;;;;;;;0.50;0.50;;;22.70;59.20;22.50;98714.00;;;;5014043;28;20225;-78
2022/05/20 06:46:36;;;;;;;0.43;0.43;;;22.80;57.70;22.60;98715.00;;;;5014157;28;20211;-75
2022/05/20 06:49:05;;;;;;;0.52;0.52;;;;;22.70;98717.00;;;;5014010;28;20537;-74
2022/05/20 06:51:35;;;;;;;2.17;0.90;;;23.00;55.30;22.90;98725.00;;;;5013905;28;20284;-74
2022/05/20 06:54:05;;;;;;;0.75;0.75;;;23.20;55.40;23.10;98723.00;;;;4996652;28;20192;-75
2022/05/20 06:56:33;;;;;;;0.93;0.93;;;23.30;54.50;23.10;98716.00;;;;5013836;28;20371;-73
2022/05/20 06:59:05;;;;;;;0.93;0.93;;;23.40;54.30;23.20;98719.00;;;;5013828;28;20213;-74
2022/05/20 07:01:32;;;;;;;0.65;0.65;;;23.50;54.20;23.30;98707.00;;;;5013673;28;20225;-74
2022/05/20 07:04:01;;;;;;;0.70;0.70;;;23.60;52.20;23.30;98714.00;;;;5013923;28;20300;-74
2022/05/20 07:06:30;;;;;;;0.57;0.57;;;23.60;52.90;23.40;98723.00;;;;5013494;28;20663;-75
2022/05/20 07:08:57;;;;;;;0.60;0.60;;;23.80;53.10;23.50;98712.00;;;;5013634;28;20243;-76
2022/05/20 07:11:27;;;;;;;0.50;0.50;;;;;23.70;98725.00;;;;5013684;28;20216;-75
2022/05/20 07:13:56;;;;;;;0.50;0.50;;;24.00;50.10;23.80;98719.00;;;;5013713;28;20803;-75
2022/05/20 07:16:24;;;;;;;0.50;0.50;;;24.10;50.60;23.80;98724.00;;;;5013483;28;20681;-73
2022/05/20 07:18:50;;;;;;;1.27;1.23;;;24.10;49.90;23.90;98721.00;;;;5013711;28;20663;-75
2022/05/20 07:21:17;;;;;;;0.80;0.80;;;24.30;50.10;23.90;98716.00;;;;5013567;28;20193;-74
2022/05/20 07:23:44;;;;;;;0.57;0.57;;;24.30;49.30;23.80;98717.00;;;;4996387;28;20201;-74
2022/05/20 07:26:16;;;;;;;0.40;0.40;;;24.20;49.30;24.00;98717.00;;;;5013603;28;20692;-74
2022/05/20 07:28:43;;;;;;;0.70;0.70;;;;;24.00;98713.00;;;;5013512;28;20567;-74
2022/05/20 07:31:10;;;;;;;1.13;1.13;;;24.40;48.00;24.00;98712.00;;;;5012679;28;20292;-74
2022/05/20 07:33:37;;;;;;;1.05;1.05;;;24.40;49.40;24.20;98709.00;;;;5013450;28;20740;-74
2022/05/20 07:36:04;;;;;;;0.90;0.90;;;;;24.30;98694.00;;;;4996204;28;20216;-74
2022/05/20 07:38:31;;;;;;;0.70;0.70;;;24.60;47.80;24.30;98701.00;;;;5013440;28;20194;-75
2022/05/20 07:41:00;;;;;;;0.60;0.60;;;;;24.40;98699.00;;;;5013477;28;20295;-74
2022/05/20 07:43:28;;;;;;;3.92;1.33;;;24.80;48.40;24.50;98703.00;;;;5013386;28;20240;-74
2022/05/20 07:45:55;;;;;;;0.63;0.63;;;24.80;47.50;24.60;98702.00;;;;5013302;28;21046;-76
2022/05/20 07:48:22;;;;;;;1.42;1.35;;;24.90;47.20;24.80;98698.00;;;;5013255;28;20213;-76
2022/05/20 07:50:58;;;;;;;0.88;0.88;;;25.10;45.40;24.90;98705.00;;;;4996223;28;20314;-75
2022/05/20 07:53:33;;;;;;;0.85;0.85;;;;;25.00;98707.00;;;;5013196;28;20240;-77
2022/05/20 07:56:05;;;;;;;0.95;0.80;;;;;25.20;98703.00;;;;5013406;28;20201;-75
2022/05/20 07:58:37;;;;;;;0.98;0.93;;;25.50;43.50;25.30;98710.00;;;;5013238;28;20201;-75
2022/05/20 08:01:06;;;;;;;0.80;0.80;;;25.60;43.30;25.40;98683.00;;;;5013136;28;20225;-75
2022/05/20 08:06:22;;;;;;;0.95;0.95;;;25.80;42.40;25.60;98704.00;;;;5012962;28;20220;-77
2022/05/20 08:08:48;;;;;;;0.45;0.45;;;25.90;43.00;25.90;98702.00;;;;5013150;28;20213;-76
2022/05/20 08:11:15;;;;;;;0.60;0.60;;;26.10;40.90;25.80;98700.00;;;;5013047;28;20197;-75
2022/05/20 08:13:42;;;;;;;0.88;0.88;;;26.10;41.20;25.90;98695.00;;;;4995654;28;20252;-75
2022/05/20 08:16:09;;;;;;;0.88;0.88;;;26.20;40.40;26.00;98692.00;;;;5013355;28;20210;-74
2022/05/20 08:18:35;;;;;;;0.57;0.57;;;26.30;39.40;26.00;98689.00;;;;5013610;28;20635;-78
2022/05/20 08:21:02;;;;;;;0.55;0.55;;;26.40;39.50;26.00;98686.00;;;;5024630;28;20213;-76
2022/05/20 08:23:28;;;;;;;0.50;0.50;;;26.40;39.60;26.20;98687.00;;;;5016624;28;20531;-77
2022/05/20 08:25:57;;;;;;;0.70;0.70;;;26.50;39.40;26.20;98680.00;;;;5016092;28;20216;-76
2022/05/20 08:28:24;;;;;;;2.85;1.10;;;26.50;38.70;26.30;98675.00;;;;5015992;28;20546;-76
2022/05/20 08:30:53;;;;;;;0.60;0.60;;;26.60;38.40;26.40;98681.00;;;;5016054;28;20668;-77
2022/05/20 08:33:22;;;;;;;0.82;0.82;;;26.70;38.70;26.30;98673.00;;;;4998819;28;20233;-79
2022/05/20 08:35:51;;;;;;;0.43;0.43;;;;;26.50;98670.00;;;;5016259;28;20193;-79
2022/05/20 08:38:18;;;;;;;0.70;0.70;;;26.80;36.50;26.60;98673.00;;;;5016156;28;20325;-78
2022/05/20 08:40:49;;;;;;;1.02;1.02;;;26.90;35.90;26.60;98673.00;;;;5015883;28;20702;-75
2022/05/20 08:43:21;;;;;;;0.73;0.73;;;26.90;35.30;26.80;98661.00;;;;5015921;28;20209;-78
2022/05/20 08:45:48;;;;;;;0.50;0.50;;;27.10;35.00;26.80;98664.00;;;;5015846;28;20233;-76
2022/05/20 08:48:16;;;;;;;0.82;0.82;;;27.10;35.30;26.90;98657.00;;;;5015817;28;20206;-77
2022/05/20 08:50:48;;;;;;;0.90;0.90;;;27.20;34.20;27.00;98666.00;;;;5015817;28;20563;-76
2022/05/20 08:53:21;;;;;;;8.48;1.30;;;;;27.10;98655.00;;;;5015710;28;20214;-76
2022/05/20 08:55:48;;;;;;;1.30;1.23;;;27.30;33.30;27.10;98658.00;;;;5015763;28;20212;-77
2022/05/20 08:58:22;;;;;;;0.75;0.75;;;27.40;33.70;27.20;98652.00;;;;5015718;28;20220;-80
2022/05/20 09:00:49;;;;;;;0.77;0.77;;;27.50;32.60;27.30;98643.00;;;;5015723;28;20526;-76
2022/05/20 09:03:16;;;;;;;0.88;0.88;;;27.60;33.10;27.30;98645.00;;;;5015619;28;20189;-76
2022/05/20 09:05:45;;;;;;;1.52;1.42;;;27.70;33.30;27.40;98650.00;;;;5015677;28;20232;-77
2022/05/20 09:08:25;;;;;;;1.13;1.02;;;27.70;33.80;27.50;98645.00;;;;5015485;28;20240;-75
2022/05/20 09:10:54;;;;;;;0.82;0.82;;;;;27.60;98649.00;;;;5015544;28;20229;-79
2022/05/20 09:16:08;;;;;;;1.10;1.10;;;27.80;31.60;27.70;98644.00;;;;5014482;28;20683;-74
2022/05/20 09:18:39;;;;;;;1.00;1.00;;;28.00;31.70;27.90;98634.00;;;;5015309;28;20232;-74
2022/05/20 09:21:08;;;;;;;0.77;0.77;;;28.10;31.80;28.00;98643.00;;;;4998212;28;20201;-75
2022/05/20 09:23:52;;;;;;;0.57;0.57;;;28.40;32.30;27.90;98640.00;;;;4998105;28;20590;-75
2022/05/20 09:26:25;;;;;;;0.90;0.90;;;28.30;31.80;28.10;98632.00;;;;5015235;28;20359;-75
2022/05/20 09:29:03;;;;;;;1.33;1.25;;;28.30;31.80;28.00;98623.00;;;;5015205;28;20217;-74
2022/05/20 09:31:40;;;;;;;0.65;0.65;;;28.40;31.60;28.10;98620.00;;;;4997690;28;20271;-76
2022/05/20 09:34:14;;;;;;;0.73;0.73;;;28.40;31.90;28.20;98619.00;;;;5015228;28;20224;-76
2022/05/20 09:36:51;;;;;;;0.88;0.82;;;28.50;31.90;28.20;98623.00;;;;5015036;28;20236;-77
2022/05/20 09:39:25;;;;;;;0.80;0.80;;;28.40;31.40;28.00;98618.00;;;;5014989;28;20288;-78
2022/05/20 09:41:55;;;;;;;0.80;0.80;;;28.40;32.10;27.90;98625.00;;;;5015101;28;20212;-75
2022/05/20 09:44:26;;;;;;;1.55;1.45;;;28.30;32.40;28.10;98607.00;;;;5014780;28;20359;-76
2022/05/20 09:47:00;;;;;;;0.80;0.80;;;;;28.20;98582.00;;;;5014883;28;20533;-76
2022/05/20 09:49:39;;;;;;;1.27;1.25;;;28.50;32.30;28.40;98607.00;;;;5014504;28;20326;-79
2022/05/20 09:52:22;;;;;;;1.88;1.75;;;28.70;32.50;28.60;98593.00;;;;5014483;28;20229;-77
2022/05/20 09:55:01;;;;;;;0.93;0.80;;;28.80;32.90;28.40;98609.00;;;;5013775;28;20560;-77
2022/05/20 09:57:36;;;;;;;0.95;0.95;;;28.80;31.70;28.20;98612.00;;;;5014782;28;20220;-77
2022/05/20 10:00:10;;;;;;;1.00;1.00;;;28.70;32.80;28.40;98609.00;;;;5014883;28;20193;-79
2022/05/20 10:02:48;;;;;;;0.70;0.70;;;28.70;32.60;28.50;98602.00;;;;4997513;28;20243;-78
2022/05/20 10:05:27;;;;;;;1.35;1.08;;;28.70;33.50;28.60;98582.00;;;;5014678;28;20267;-80
2022/05/20 10:08:03;;;;;;;0.90;0.90;;;28.90;33.80;28.90;98581.00;;;;5014635;28;20230;-73
2022/05/20 10:10:50;;;;;;;0.50;0.50;;;29.20;33.10;29.00;98568.00;;;;5014553;28;20299;-73
2022/05/20 10:13:31;;;;;;;1.05;1.05;;;29.20;32.50;29.00;98557.00;;;;5013582;28;20228;-74
2022/05/20 10:16:14;;;;;;;12.82;1.92;;;29.30;34.60;28.90;98563.00;;;;5014474;28;20240;-77
2022/05/20 10:18:54;;;;;;;1.70;1.60;;;29.30;36.50;28.90;98565.00;;;;5014405;28;20227;-76
2022/05/20 10:21:43;;;;;;;1.17;1.10;;;29.30;36.10;29.00;98566.00;;;;5014574;28;20224;-76
2022/05/20 10:24:37;;;;;;;2.80;1.65;;;29.30;32.50;29.20;98554.00;;;;5014343;28;20287;-76
2022/05/20 10:27:12;;;;;;;0.80;0.80;;;;;29.20;98551.00;;;;5014475;28;20224;-75
2022/05/20 10:32:49;;;;;;;0.68;0.68;;;29.70;35.90;29.60;98569.00;;;;5014136;28;20216;-75
2022/05/20 10:35:21;;;;;;;1.38;1.30;;;29.90;37.00;29.50;98565.00;;;;5014336;28;20351;-74
2022/05/20 10:38:18;;;;;;;1.30;1.20;;;29.80;35.30;29.60;98570.00;;;;5014231;28;20211;-74
2022/05/20 10:40:59;;;;;;;0.93;0.93;;;29.90;35.80;29.90;98565.00;;;;5014057;28;20542;-75
2022/05/20 10:49:55;;;;;;;1.00;1.00;;;30.20;35.70;29.90;98558.00;;;;5013998;28;20231;-75
2022/05/20 10:53:02;;;;;;;1.27;1.25;;;30.20;35.20;30.20;98547.00;;;;5013916;28;20284;-75
2022/05/20 10:55:54;;;;;;;1.08;1.08;;;30.30;35.70;30.20;98548.00;;;;5013981;28;20597;-73
2022/05/20 10:58:48;;;;;;;1.10;1.10;;;30.40;35.50;30.30;98553.00;;;;5013898;28;20586;-76
2022/05/20 11:01:27;;;;;;;1.08;1.08;;;30.50;34.60;30.50;98550.00;;;;5013812;28;20691;-75
2022/05/20 11:04:28;;;;;;;0.70;0.70;;;30.60;34.00;30.70;98541.00;;;;5014116;28;20269;-75
2022/05/20 11:07:57;;;;;;;0.90;0.90;;;30.80;34.00;30.60;98534.00;;;;5013925;28;20197;-79
2022/05/20 11:11:01;;;;;;;2.28;1.80;;;30.90;31.70;30.80;98515.00;;;;4953825;29;20206;-75
2022/05/20 11:13:54;;;;;;;1.05;0.95;;;31.00;32.30;31.10;98515.00;;;;5013626;28;20426;-75
2022/05/20 11:16:46;;;;;;;0.85;0.85;;;31.20;32.90;31.40;98503.00;;;;5013592;28;20640;-75
2022/05/20 11:19:43;;;;;;;0.90;0.90;;;31.50;33.40;31.50;98488.00;;;;4996192;28;20637;-76
2022/05/20 11:22:59;;;;;;;1.45;1.27;;;31.70;32.70;31.50;98484.00;;;;5010516;28;20261;-78
2022/05/20 11:25:46;;;;;;;0.90;0.90;;;31.60;30.30;31.50;98481.00;;;;5008500;28;20287;-79
2022/05/20 11:28:41;;;;;;;1.50;1.45;;;31.70;31.90;31.70;98472.00;;;;5013389;28;20282;-78
2022/05/20 11:31:31;;;;;;;1.55;1.45;;;31.80;31.80;31.90;98467.00;;;;5013605;28;20637;-79
2022/05/20 11:34:38;;;;;;;0.98;0.98;;;31.90;30.30;31.90;98454.00;;;;5013351;28;20240;-79
2022/05/20 11:37:28;;;;;;;0.70;0.70;;;32.10;31.40;32.40;98435.00;;;;5012343;28;20546;-80
2022/05/20 11:40:21;;;;;;;1.38;1.35;;;;;32.50;98421.00;;;;5013477;28;20182;-78
2022/05/20 11:43:30;;;;;;;1.20;1.20;;;32.60;29.40;32.60;98410.00;;;;4996268;28;20224;-80
2022/05/20 11:46:11;;;;;;;0.70;0.70;;;32.70;27.30;32.90;98405.00;;;;5013345;28;20221;-77
2022/05/20 11:49:11;;;;;;;1.85;1.75;;;33.00;29.70;32.90;98399.00;;;;5013181;28;20225;-75
2022/05/20 11:52:35;;;;;;;1.85;1.70;;;33.10;29.00;33.60;98395.00;;;;5013438;28;20208;-74
2022/05/20 11:55:07;;;;;;;1.85;1.13;;;;;33.90;98391.00;;;;5015478;28;20292;-75
2022/05/20 11:57:43;;;;;;;1.67;1.58;;;34.00;27.30;34.20;98381.00;;;;5016805;28;20204;-74
2022/05/20 12:00:16;;;;;;;1.20;1.20;;;34.20;29.10;34.40;98394.00;;;;5016753;28;20253;-76